createdAt,value
2019-04-21T00:00:37.383Z,6.97
2019-04-21T00:01:16.415Z,6.80
2019-04-21T00:01:54.523Z,6.83
2019-04-21T00:02:35.775Z,6.72
2019-04-21T00:03:15.203Z,6.50
2019-04-21T00:03:52.128Z,6.53
2019-04-21T00:04:39.391Z,6.70
2019-04-21T00:05:24.754Z,6.65
2019-04-21T00:05:57.558Z,6.72
2019-04-21T00:06:35.324Z,7.03
2019-04-21T00:07:15.722Z,6.90
2019-04-21T00:07:51.231Z,6.92
2019-04-21T00:09:11.403Z,6.80
2019-04-21T00:09:58.209Z,7.37
2019-04-21T00:10:27.261Z,6.87
2019-04-21T00:11:04.598Z,6.47
2019-04-21T00:11:41.326Z,6.78
2019-04-21T00:12:51.795Z,7.03
2019-04-21T00:13:27.941Z,7.00
2019-04-21T00:14:03.349Z,7.50
2019-04-21T00:14:39.807Z,7.08
2019-04-21T00:15:14.552Z,6.87
2019-04-21T00:15:48.843Z,7.37
2019-04-21T00:16:33.085Z,7.17
2019-04-21T00:17:05.068Z,6.95
2019-04-21T00:17:36.827Z,7.45
2019-04-21T00:18:23.291Z,6.70
2019-04-21T00:19:21.766Z,7.00
2019-04-21T00:20:11.492Z,6.53
2019-04-21T00:20:42.449Z,6.95
2019-04-21T00:21:23.236Z,6.87
2019-04-21T00:21:55.471Z,6.58
2019-04-21T00:22:43.151Z,6.80
2019-04-21T00:23:24.906Z,7.00
2019-04-21T00:24:00.340Z,6.65
2019-04-21T00:24:37.441Z,7.45
2019-04-21T00:25:16.319Z,6.90
2019-04-21T00:25:48.764Z,6.58
2019-04-21T00:26:33.298Z,7.10
2019-04-21T00:27:14.153Z,6.95
2019-04-21T00:27:47.517Z,7.30
2019-04-21T00:28:34.668Z,6.97
2019-04-21T00:29:11.380Z,6.47
2019-04-21T00:29:45.422Z,6.87
2019-04-21T00:30:21.684Z,6.70
2019-04-21T00:30:57.910Z,6.97
2019-04-21T00:31:36.709Z,6.25
2019-04-21T00:32:11.468Z,6.42
2019-04-21T00:32:46.758Z,6.33
2019-04-21T00:33:17.586Z,6.70
2019-04-21T00:33:49.656Z,7.00
2019-04-21T00:34:25.795Z,6.87
2019-04-21T00:35:08.238Z,6.35
2019-04-21T00:35:45.483Z,6.60
2019-04-21T00:36:22.700Z,6.30
2019-04-21T00:37:05.789Z,6.55
2019-04-21T00:37:58.888Z,6.90
2019-04-21T00:38:33.879Z,6.47
2019-04-21T00:39:26.604Z,6.30
2019-04-21T00:40:22.420Z,6.33
2019-04-21T00:41:03.817Z,6.75
2019-04-21T00:41:40.232Z,6.62
2019-04-21T00:42:14.345Z,5.87
2019-04-21T00:42:52.149Z,6.70
2019-04-21T00:43:28.213Z,6.37
2019-04-21T00:44:04.522Z,6.15
2019-04-21T00:44:38.132Z,6.40
2019-04-21T00:45:20.659Z,6.30
2019-04-21T00:45:51.809Z,6.55
2019-04-21T00:46:34.786Z,5.80
2019-04-21T00:47:13.965Z,6.28
2019-04-21T00:48:00.625Z,6.58
2019-04-21T00:48:36.349Z,6.40
2019-04-21T00:49:05.904Z,6.55
2019-04-21T00:49:55.409Z,6.42
2019-04-21T00:50:33.725Z,6.62
2019-04-21T00:52:02.017Z,5.95
2019-04-21T00:53:06.986Z,6.35
2019-04-21T00:53:41.861Z,5.92
2019-04-21T00:54:12.919Z,6.08
2019-04-21T00:55:01.767Z,6.83
2019-04-21T00:55:38.638Z,6.70
2019-04-21T00:56:15.382Z,6.75
2019-04-21T00:56:54.208Z,6.30
2019-04-21T00:57:32.372Z,6.53
2019-04-21T00:58:05.179Z,6.75
2019-04-21T00:58:39.308Z,6.78
2019-04-21T00:59:20.111Z,6.83
2019-04-21T00:59:54.369Z,6.40
2019-04-21T01:00:33.983Z,6.67
2019-04-21T01:01:12.618Z,6.42
2019-04-21T01:01:44.656Z,6.08
2019-04-21T01:02:27.891Z,6.62
2019-04-21T01:03:03.296Z,7.05
2019-04-21T01:03:45.677Z,6.80
2019-04-21T01:04:15.565Z,6.17
2019-04-21T01:05:01.630Z,6.55
2019-04-21T01:05:37.448Z,6.50
2019-04-21T01:06:14.365Z,6.80
2019-04-21T01:06:53.030Z,7.33
2019-04-21T01:07:28.750Z,6.67
2019-04-21T01:07:59.456Z,7.17
2019-04-21T01:08:38.099Z,6.80
2019-04-21T01:09:16.585Z,6.83
2019-04-21T01:09:48.537Z,6.37
2019-04-21T01:10:24.914Z,6.60
2019-04-21T01:11:01.508Z,7.00
2019-04-21T01:11:49.532Z,7.17
2019-04-21T01:12:25.464Z,6.28
2019-04-21T01:13:02.598Z,6.40
2019-04-21T01:13:41.198Z,6.28
2019-04-21T01:14:27.241Z,6.37
2019-04-21T01:14:55.319Z,6.50
2019-04-21T01:15:37.462Z,6.35
2019-04-21T01:16:12.614Z,6.65
2019-04-21T01:16:45.760Z,7.05
2019-04-21T01:17:21.766Z,6.20
2019-04-21T01:18:06.366Z,6.45
2019-04-21T01:18:38.139Z,7.15
2019-04-21T01:19:16.715Z,6.15
2019-04-21T01:19:53.288Z,6.22
2019-04-21T01:20:17.360Z,6.47
2019-04-21T01:20:48.056Z,6.55
2019-04-21T01:21:24.020Z,6.67
2019-04-21T01:22:00.209Z,6.60
2019-04-21T01:22:35.943Z,6.83
2019-04-21T01:23:12.728Z,6.42
2019-04-21T01:23:48.735Z,6.75
2019-04-21T01:24:30.811Z,6.72
2019-04-21T01:25:08.986Z,6.03
2019-04-21T01:25:46.051Z,6.08
2019-04-21T01:26:31.185Z,6.35
2019-04-21T01:27:04.530Z,6.70
2019-04-21T01:27:52.077Z,6.83
2019-04-21T01:28:24.138Z,6.83
2019-04-21T01:29:07.042Z,6.62
2019-04-21T01:29:45.996Z,6.53
2019-04-21T01:30:23.749Z,7.05
2019-04-21T01:30:56.797Z,7.03
2019-04-21T01:31:32.915Z,6.20
2019-04-21T01:32:19.087Z,6.45
2019-04-21T01:32:53.139Z,6.67
2019-04-21T01:33:33.514Z,6.47
2019-04-21T01:34:10.128Z,6.67
2019-04-21T01:34:45.431Z,7.00
2019-04-21T01:35:21.086Z,6.90
2019-04-21T01:35:54.860Z,7.37
2019-04-21T01:36:35.867Z,6.72
2019-04-21T01:37:10.528Z,6.95
2019-04-21T01:38:00.083Z,6.80
2019-04-21T01:38:34.237Z,6.87
2019-04-21T01:39:05.269Z,7.05
2019-04-21T01:39:47.905Z,6.67
2019-04-21T01:40:37.677Z,6.60
2019-04-21T01:41:03.556Z,6.75
2019-04-21T01:41:41.598Z,7.03
2019-04-21T01:42:11.081Z,6.50
2019-04-21T01:42:50.994Z,6.45
2019-04-21T01:43:27.968Z,6.92
2019-04-21T01:44:01.541Z,6.92
2019-04-21T01:44:58.181Z,6.30
2019-04-21T01:45:15.717Z,6.58
2019-04-21T01:45:53.956Z,6.67
2019-04-21T01:46:35.427Z,6.22
2019-04-21T01:47:10.249Z,7.35
2019-04-21T01:47:46.241Z,5.60
2019-04-21T01:48:25.956Z,7.03
2019-04-21T01:49:01.491Z,6.60
2019-04-21T01:49:34.942Z,6.70
2019-04-21T01:50:14.100Z,6.47
2019-04-21T01:50:55.490Z,6.57
2019-04-21T01:51:38.424Z,6.80
2019-04-21T01:52:24.596Z,6.72
2019-04-21T01:53:02.123Z,6.78
2019-04-21T01:53:50.493Z,6.95
2019-04-21T01:54:43.597Z,6.37
2019-04-21T01:55:28.985Z,6.65
2019-04-21T01:56:24.088Z,7.03
2019-04-21T01:57:11.443Z,6.60
2019-04-21T01:57:59.405Z,6.85
2019-04-21T01:58:35.741Z,6.78
2019-04-21T01:59:06.995Z,6.45
2019-04-21T01:59:52.760Z,7.20
2019-04-21T02:00:41.193Z,6.28
2019-04-21T02:01:27.505Z,6.80
2019-04-21T02:02:02.071Z,6.30
2019-04-21T02:02:47.645Z,7.12
2019-04-21T02:03:34.386Z,7.00
2019-04-21T02:04:09.412Z,6.42
2019-04-21T02:04:37.194Z,6.67
2019-04-21T02:05:17.218Z,6.45
2019-04-21T02:05:53.005Z,7.10
2019-04-21T02:06:27.637Z,6.40
2019-04-21T02:07:04.237Z,6.28
2019-04-21T02:07:41.820Z,6.60
2019-04-21T02:08:20.101Z,6.72
2019-04-21T02:08:48.814Z,6.90
2019-04-21T02:09:38.163Z,6.50
2019-04-21T02:10:20.877Z,6.30
2019-04-21T02:10:54.681Z,7.08
2019-04-21T02:11:31.253Z,6.92
2019-04-21T02:12:12.323Z,6.30
2019-04-21T02:12:44.487Z,6.40
2019-04-21T02:13:20.221Z,6.10
2019-04-21T02:14:06.007Z,6.87
2019-04-21T02:14:41.462Z,6.75
2019-04-21T02:15:17.092Z,6.33
2019-04-21T02:15:56.113Z,6.17
2019-04-21T02:16:28.210Z,7.45
2019-04-21T02:17:10.447Z,6.45
2019-04-21T02:17:43.337Z,6.72
2019-04-21T02:18:22.110Z,6.95
2019-04-21T02:18:54.430Z,6.58
2019-04-21T02:19:31.517Z,6.15
2019-04-21T02:20:09.415Z,6.40
2019-04-21T02:20:41.342Z,6.60
2019-04-21T02:21:21.831Z,6.50
2019-04-21T02:22:00.884Z,7.53
2019-04-21T02:22:57.479Z,6.50
2019-04-21T02:24:05.011Z,6.78
2019-04-21T02:24:42.045Z,6.65
2019-04-21T02:25:20.153Z,6.75
2019-04-21T02:25:57.488Z,6.78
2019-04-21T02:26:37.510Z,6.37
2019-04-21T02:27:14.945Z,6.58
2019-04-21T02:27:54.716Z,6.47
2019-04-21T02:28:29.685Z,6.85
2019-04-21T02:29:10.678Z,6.75
2019-04-21T02:29:41.164Z,6.60
2019-04-21T02:30:27.858Z,6.22
2019-04-21T02:32:14.350Z,6.10
2019-04-21T02:33:02.803Z,6.60
2019-04-21T02:33:38.907Z,6.60
2019-04-21T02:34:04.580Z,6.83
2019-04-21T02:34:52.414Z,6.78
2019-04-21T02:37:13.975Z,7.03
2019-04-21T02:38:40.251Z,6.55
2019-04-21T02:39:57.261Z,6.90
2019-04-21T02:40:29.442Z,7.03
2019-04-21T02:41:01.451Z,7.08
2019-04-21T02:41:55.824Z,6.92
2019-04-21T02:42:18.673Z,6.35
2019-04-21T02:43:09.390Z,7.15
2019-04-21T02:44:23.936Z,6.78
2019-04-21T02:46:06.989Z,6.80
2019-04-21T02:46:50.249Z,6.67
2019-04-21T02:47:27.471Z,6.70
2019-04-21T02:48:38.840Z,7.00
2019-04-21T02:49:37.737Z,7.10
2019-04-21T02:50:27.751Z,6.47
2019-04-21T02:51:03.900Z,6.42
2019-04-21T02:51:42.153Z,6.77
2019-04-21T02:52:31.354Z,7.47
2019-04-21T02:54:40.567Z,7.17
2019-04-21T02:54:54.119Z,6.62
2019-04-21T02:56:11.161Z,6.55
2019-04-21T02:56:51.488Z,6.83
2019-04-21T02:58:09.983Z,6.50
2019-04-21T02:59:49.417Z,6.83
2019-04-21T03:01:33.374Z,7.20
2019-04-21T03:02:25.079Z,6.65
2019-04-21T03:03:13.417Z,6.25
2019-04-21T03:04:10.933Z,6.72
2019-04-21T03:04:57.306Z,6.85
2019-04-21T03:05:48.762Z,6.53
2019-04-21T03:06:46.673Z,6.40
2019-04-21T03:07:27.681Z,6.70
2019-04-21T03:08:03.825Z,7.10
2019-04-21T03:09:53.134Z,7.20
2019-04-21T03:11:59.807Z,7.28
2019-04-21T03:12:22.333Z,6.87
2019-04-21T03:13:08.940Z,7.42
2019-04-21T03:14:28.291Z,7.35
2019-04-21T03:15:03.948Z,6.70
2019-04-21T03:16:16.996Z,7.42
2019-04-21T03:16:40.577Z,7.25
2019-04-21T03:17:35.516Z,7.55
2019-04-21T03:18:08.388Z,7.37
2019-04-21T03:20:54.860Z,7.28
2019-04-21T03:21:57.486Z,6.85
2019-04-21T03:22:24.265Z,7.33
2019-04-21T03:23:13.379Z,7.08
2019-04-21T03:23:46.067Z,7.53
2019-04-21T03:24:18.401Z,7.15
2019-04-21T03:25:41.885Z,7.53
2019-04-21T03:26:19.891Z,7.07
2019-04-21T03:27:01.058Z,7.37
2019-04-21T03:27:51.216Z,7.53
2019-04-21T03:28:06.469Z,7.47
2019-04-21T03:28:48.018Z,7.20
2019-04-21T03:29:32.834Z,7.77
2019-04-21T03:29:59.419Z,7.65
2019-04-21T03:31:39.283Z,7.08
2019-04-21T03:33:53.840Z,6.83
2019-04-21T03:34:15.213Z,8.17
2019-04-21T03:34:51.467Z,7.65
2019-04-21T03:36:40.078Z,6.93
2019-04-21T03:37:33.226Z,7.55
2019-04-21T03:38:05.830Z,7.47
2019-04-21T03:39:17.944Z,7.22
2019-04-21T03:41:12.743Z,7.10
2019-04-21T03:42:03.315Z,7.20
2019-04-21T03:43:06.162Z,7.15
2019-04-21T03:43:44.695Z,7.15
2019-04-21T03:44:28.328Z,6.83
2019-04-21T03:44:55.155Z,7.13
2019-04-21T03:46:20.045Z,7.67
2019-04-21T03:47:01.577Z,7.17
2019-04-21T03:48:11.542Z,6.53
2019-04-21T03:48:47.152Z,7.47
2019-04-21T03:49:33.702Z,7.07
2019-04-21T03:50:07.116Z,7.27
2019-04-21T03:50:33.737Z,7.22
2019-04-21T03:51:23.449Z,7.58
2019-04-21T03:51:54.943Z,7.33
2019-04-21T03:52:31.842Z,6.40
2019-04-21T03:53:09.577Z,7.10
2019-04-21T03:53:38.164Z,6.93
2019-04-21T03:54:16.054Z,7.33
2019-04-21T03:55:50.381Z,7.60
2019-04-21T03:56:06.757Z,7.17
2019-04-21T03:57:38.566Z,7.43
2019-04-21T03:58:47.445Z,7.00
2019-04-21T03:59:55.636Z,7.45
2019-04-21T04:01:40.643Z,7.90
2019-04-21T04:02:36.628Z,7.17
2019-04-21T04:03:45.991Z,7.33
2019-04-21T04:04:26.384Z,7.37
2019-04-21T04:05:15.076Z,7.57
2019-04-21T04:06:03.674Z,7.78
2019-04-21T04:07:08.212Z,7.77
2019-04-21T04:08:04.753Z,7.50
2019-04-21T04:08:52.498Z,8.48
2019-04-21T04:09:45.156Z,7.43
2019-04-21T04:10:08.401Z,7.70
2019-04-21T04:10:51.930Z,8.50
2019-04-21T04:11:30.013Z,8.33
2019-04-21T04:12:35.056Z,6.83
2019-04-21T04:13:14.121Z,8.50
2019-04-21T04:13:55.808Z,8.20
2019-04-21T04:14:34.187Z,8.17
2019-04-21T04:15:03.010Z,8.15
2019-04-21T04:17:04.819Z,7.90
2019-04-21T04:17:36.491Z,8.10
2019-04-21T04:18:17.760Z,8.05
2019-04-21T04:19:34.601Z,8.23
2019-04-21T04:20:09.050Z,8.10
2019-04-21T04:21:28.373Z,8.23
2019-04-21T04:22:14.287Z,8.75
2019-04-21T04:22:45.974Z,8.00
2019-04-21T04:23:08.081Z,8.00
2019-04-21T04:23:58.159Z,7.40
2019-04-21T04:24:33.985Z,8.50
2019-04-21T04:25:42.871Z,8.67
2019-04-21T04:27:01.581Z,8.70
2019-04-21T04:27:37.723Z,8.57
2019-04-21T04:28:27.829Z,8.07
2019-04-21T04:28:58.044Z,8.23
2019-04-21T04:30:08.004Z,8.33
2019-04-21T04:30:39.547Z,8.97
2019-04-21T04:31:25.893Z,7.73
2019-04-21T04:31:53.164Z,7.87
2019-04-21T04:33:14.222Z,8.37
2019-04-21T04:34:10.455Z,8.80
2019-04-21T04:35:03.388Z,8.87
2019-04-21T04:36:23.919Z,9.17
2019-04-21T04:37:32.115Z,8.80
2019-04-21T04:38:20.157Z,8.77
2019-04-21T04:39:48.675Z,8.47
2019-04-21T04:40:51.653Z,8.40
2019-04-21T04:41:38.251Z,8.17
2019-04-21T04:42:21.713Z,8.57
2019-04-21T04:43:11.686Z,8.07
2019-04-21T04:43:44.711Z,8.73
2019-04-21T04:44:39.543Z,7.90
2019-04-21T04:46:22.336Z,9.37
2019-04-21T04:47:04.548Z,8.67
2019-04-21T04:47:22.803Z,8.70
2019-04-21T04:48:05.804Z,9.13
2019-04-21T04:48:51.448Z,9.03
2019-04-21T04:49:57.263Z,9.07
2019-04-21T04:50:53.446Z,9.30
2019-04-21T04:51:14.822Z,9.00
2019-04-21T04:52:14.230Z,9.43
2019-04-21T04:53:12.130Z,9.53
2019-04-21T04:53:44.024Z,9.13
2019-04-21T04:54:32.423Z,8.77
2019-04-21T04:55:01.938Z,8.55
2019-04-21T04:55:43.418Z,9.10
2019-04-21T04:56:58.661Z,9.73
2019-04-21T04:57:33.858Z,9.77
2019-04-21T05:00:14.299Z,9.00
2019-04-21T05:01:26.753Z,9.97
2019-04-21T05:02:33.279Z,9.13
2019-04-21T05:03:05.542Z,8.50
2019-04-21T05:04:02.567Z,9.17
2019-04-21T05:04:23.721Z,9.23
2019-04-21T05:06:06.568Z,8.77
2019-04-21T05:06:42.662Z,9.68
2019-04-21T05:07:07.100Z,9.57
2019-04-21T05:08:39.506Z,8.47
2019-04-21T05:10:07.519Z,9.37
2019-04-21T05:11:01.463Z,8.97
2019-04-21T05:11:43.174Z,9.13
2019-04-21T05:12:02.991Z,8.75
2019-04-21T05:12:38.845Z,8.77
2019-04-21T05:13:21.294Z,9.60
2019-04-21T05:14:02.892Z,8.97
2019-04-21T05:14:30.126Z,8.67
2019-04-21T05:15:09.733Z,8.93
2019-04-21T05:15:50.043Z,9.17
2019-04-21T05:16:36.655Z,9.87
2019-04-21T05:17:25.287Z,9.27
2019-04-21T05:17:49.159Z,8.80
2019-04-21T05:18:17.853Z,9.37
2019-04-21T05:19:53.982Z,8.87
2019-04-21T05:20:15.876Z,8.80
2019-04-21T05:20:56.360Z,8.53
2019-04-21T05:21:30.210Z,9.10
2019-04-21T05:21:57.122Z,8.90
2019-04-21T05:22:41.218Z,8.87
2019-04-21T05:23:06.328Z,9.47
2019-04-21T05:23:42.865Z,8.97
2019-04-21T05:24:21.493Z,9.13
2019-04-21T05:24:55.364Z,9.27
2019-04-21T05:25:27.772Z,8.97
2019-04-21T05:26:07.117Z,9.53
2019-04-21T05:26:48.035Z,9.03
2019-04-21T05:27:30.728Z,8.13
2019-04-21T05:28:08.963Z,8.90
2019-04-21T05:28:44.582Z,9.00
2019-04-21T05:29:30.922Z,8.83
2019-04-21T05:30:26.750Z,8.77
2019-04-21T05:31:19.708Z,8.70
2019-04-21T05:32:04.997Z,8.80
2019-04-21T05:32:58.430Z,8.67
2019-04-21T05:33:54.318Z,8.43
2019-04-21T05:34:30.578Z,8.67
2019-04-21T05:35:14.118Z,8.23
2019-04-21T05:36:12.955Z,9.03
2019-04-21T05:37:18.790Z,8.03
2019-04-21T05:37:59.906Z,8.03
2019-04-21T05:38:53.440Z,9.43
2019-04-21T05:39:36.238Z,7.97
2019-04-21T05:40:20.073Z,8.97
2019-04-21T05:40:55.215Z,8.50
2019-04-21T05:41:30.156Z,9.17
2019-04-21T05:42:07.707Z,8.40
2019-04-21T05:42:52.642Z,8.00
2019-04-21T05:43:32.600Z,8.70
2019-04-21T05:44:13.264Z,8.33
2019-04-21T05:44:58.827Z,8.53
2019-04-21T05:45:29.745Z,8.73
2019-04-21T05:46:21.248Z,8.00
2019-04-21T05:46:46.769Z,8.90
2019-04-21T05:47:26.527Z,8.35
2019-04-21T05:48:12.136Z,8.00
2019-04-21T05:48:39.149Z,8.33
2019-04-21T05:49:21.985Z,8.10
2019-04-21T05:50:06.520Z,8.20
2019-04-21T05:50:46.238Z,8.90
2019-04-21T05:51:20.337Z,8.53
2019-04-21T05:51:59.768Z,8.45
2019-04-21T05:52:45.936Z,8.13
2019-04-21T05:54:17.777Z,8.00
2019-04-21T05:54:52.889Z,8.40
2019-04-21T05:55:26.173Z,8.40
2019-04-21T05:56:05.016Z,9.17
2019-04-21T05:57:17.164Z,8.28
2019-04-21T05:57:54.383Z,8.78
2019-04-21T05:58:31.706Z,8.73
2019-04-21T05:59:07.856Z,8.60
2019-04-21T05:59:51.496Z,8.55
2019-04-21T06:00:39.067Z,8.33
2019-04-21T06:01:28.771Z,8.43
2019-04-21T06:01:46.421Z,8.67
2019-04-21T06:02:22.338Z,8.83
2019-04-21T06:03:06.590Z,7.90
2019-04-21T06:03:44.833Z,7.67
2019-04-21T06:04:26.207Z,8.65
2019-04-21T06:05:39.027Z,7.92
2019-04-21T06:06:14.169Z,8.58
2019-04-21T06:06:47.679Z,8.90
2019-04-21T06:07:23.072Z,8.23
2019-04-21T06:08:00.508Z,8.23
2019-04-21T06:08:53.677Z,8.45
2019-04-21T06:09:22.520Z,8.05
2019-04-21T06:10:34.657Z,8.35
2019-04-21T06:11:14.901Z,8.50
2019-04-21T06:11:50.979Z,8.95
2019-04-21T06:12:29.904Z,8.97
2019-04-21T06:13:06.044Z,8.98
2019-04-21T06:14:21.724Z,8.70
2019-04-21T06:15:00.929Z,7.90
2019-04-21T06:15:37.294Z,8.25
2019-04-21T06:16:12.157Z,8.10
2019-04-21T06:16:55.593Z,8.00
2019-04-21T06:17:31.528Z,7.80
2019-04-21T06:18:05.352Z,8.10
2019-04-21T06:18:48.788Z,7.95
2019-04-21T06:19:27.531Z,8.05
2019-04-21T06:20:38.843Z,8.10
2019-04-21T06:21:10.391Z,6.95
2019-04-21T06:21:45.232Z,7.80
2019-04-21T06:22:27.423Z,8.17
2019-04-21T06:23:03.408Z,8.35
2019-04-21T06:23:40.197Z,7.87
2019-04-21T06:24:15.989Z,8.03
2019-04-21T06:25:21.242Z,8.50
2019-04-21T06:26:29.183Z,7.62
2019-04-21T06:26:59.933Z,8.13
2019-04-21T06:27:34.347Z,7.65
2019-04-21T06:28:03.554Z,8.33
2019-04-21T06:28:49.093Z,7.60
2019-04-21T06:29:22.365Z,8.23
2019-04-21T06:30:45.502Z,7.60
2019-04-21T06:32:17.731Z,8.33
2019-04-21T06:32:45.999Z,8.63
2019-04-21T06:33:07.564Z,7.72
2019-04-21T06:33:44.613Z,8.55
2019-04-21T06:34:49.586Z,8.18
2019-04-21T06:36:36.301Z,8.15
2019-04-21T06:37:59.804Z,7.92
2019-04-21T06:39:04.929Z,7.85
2019-04-21T06:40:21.097Z,8.00
2019-04-21T06:40:56.425Z,8.15
2019-04-21T06:41:32.573Z,8.15
2019-04-21T06:42:06.732Z,7.90
2019-04-21T06:42:52.694Z,7.80
2019-04-21T06:43:41.978Z,7.72
2019-04-21T06:44:01.456Z,7.55
2019-04-21T06:44:41.583Z,7.70
2019-04-21T06:45:18.610Z,7.75
2019-04-21T06:45:54.369Z,7.45
2019-04-21T06:46:38.000Z,7.58
2019-04-21T06:47:09.847Z,7.87
2019-04-21T06:48:24.568Z,7.25
2019-04-21T06:49:00.020Z,7.58
2019-04-21T06:49:30.373Z,7.62
2019-04-21T06:50:18.382Z,8.03
2019-04-21T06:50:52.835Z,8.35
2019-04-21T06:52:20.551Z,7.80
2019-04-21T06:52:52.184Z,8.03
2019-04-21T06:53:33.435Z,7.80
2019-04-21T06:55:15.645Z,7.78
2019-04-21T06:55:54.825Z,7.33
2019-04-21T06:56:38.026Z,7.92
2019-04-21T06:57:06.849Z,7.55
2019-04-21T06:57:48.005Z,7.50
2019-04-21T06:58:18.124Z,7.75
2019-04-21T06:58:57.941Z,7.47
2019-04-21T06:59:34.272Z,7.70
2019-04-21T07:00:15.186Z,7.42
2019-04-21T07:00:50.965Z,7.78
2019-04-21T07:01:34.290Z,7.45
2019-04-21T07:02:21.224Z,7.08
2019-04-21T07:03:29.754Z,7.17
2019-04-21T07:04:05.719Z,7.22
2019-04-21T07:04:40.859Z,6.72
2019-04-21T07:05:13.280Z,6.90
2019-04-21T07:05:58.990Z,7.15
2019-04-21T07:06:31.951Z,7.20
2019-04-21T07:07:05.353Z,7.47
2019-04-21T07:07:43.469Z,7.87
2019-04-21T07:08:28.773Z,7.62
2019-04-21T07:09:10.304Z,7.20
2019-04-21T07:09:52.868Z,7.75
2019-04-21T07:10:30.769Z,7.15
2019-04-21T07:10:53.281Z,7.40
2019-04-21T07:11:26.708Z,7.22
2019-04-21T07:12:04.202Z,8.25
2019-04-21T07:12:38.998Z,7.45
2019-04-21T07:13:19.194Z,7.10
2019-04-21T07:14:13.450Z,7.58
2019-04-21T07:14:32.030Z,6.90
2019-04-21T07:15:11.360Z,7.55
2019-04-21T07:15:53.828Z,7.28
2019-04-21T07:16:25.738Z,6.87
2019-04-21T07:17:06.399Z,7.08
2019-04-21T07:17:38.980Z,7.05
2019-04-21T07:18:25.323Z,7.20
2019-04-21T07:19:07.155Z,7.37
2019-04-21T07:19:40.964Z,7.37
2019-04-21T07:20:12.839Z,6.78
2019-04-21T07:20:49.071Z,6.75
2019-04-21T07:21:30.126Z,6.83
2019-04-21T07:22:03.079Z,7.17
2019-04-21T07:22:44.680Z,6.90
2019-04-21T07:23:28.413Z,7.30
2019-04-21T07:24:02.010Z,7.10
2019-04-21T07:24:41.735Z,6.83
2019-04-21T07:25:13.767Z,6.50
2019-04-21T07:25:54.811Z,6.58
2019-04-21T07:26:29.627Z,7.05
2019-04-21T07:27:09.906Z,7.08
2019-04-21T07:28:21.998Z,6.58
2019-04-21T07:29:02.909Z,7.10
2019-04-21T07:29:39.591Z,6.92
2019-04-21T07:30:14.996Z,6.95
2019-04-21T07:30:51.861Z,7.42
2019-04-21T07:31:31.952Z,6.70
2019-04-21T07:32:04.411Z,6.67
2019-04-21T07:32:46.012Z,7.15
2019-04-21T07:33:43.202Z,6.83
2019-04-21T07:34:01.998Z,7.00
2019-04-21T07:34:48.000Z,7.03
2019-04-21T07:35:17.833Z,6.53
2019-04-21T07:35:51.821Z,7.10
2019-04-21T07:36:38.220Z,6.78
2019-04-21T07:37:28.146Z,6.72
2019-04-21T07:37:41.057Z,6.90
2019-04-21T07:38:24.487Z,6.53
2019-04-21T07:38:56.764Z,6.80
2019-04-21T07:39:35.694Z,6.80
2019-04-21T07:40:11.484Z,7.25
2019-04-21T07:40:45.890Z,6.83
2019-04-21T07:41:18.660Z,6.80
2019-04-21T07:42:04.609Z,6.95
2019-04-21T07:42:42.679Z,7.30
2019-04-21T07:43:19.727Z,7.70
2019-04-21T07:43:57.194Z,6.95
2019-04-21T07:44:34.927Z,6.47
2019-04-21T07:45:13.360Z,7.42
2019-04-21T07:45:51.584Z,7.45
2019-04-21T07:46:25.695Z,7.92
2019-04-21T07:47:11.848Z,6.78
2019-04-21T07:47:55.199Z,7.55
2019-04-21T07:48:43.265Z,7.03
2019-04-21T07:49:40.038Z,7.40
2019-04-21T07:50:20.627Z,7.12
2019-04-21T07:51:11.074Z,7.15
2019-04-21T07:52:18.825Z,7.30
2019-04-21T07:53:14.470Z,7.00
2019-04-21T07:53:55.819Z,6.25
2019-04-21T07:55:22.072Z,6.55
2019-04-21T07:56:09.371Z,6.95
2019-04-21T07:56:44.286Z,7.00
2019-04-21T07:57:31.652Z,7.33
2019-04-21T07:58:14.598Z,7.40
2019-04-21T07:58:58.385Z,7.50
2019-04-21T07:59:43.147Z,6.53
2019-04-21T08:01:24.336Z,7.30
2019-04-21T08:02:00.992Z,7.33
2019-04-21T08:02:45.434Z,6.65
2019-04-21T08:03:24.753Z,6.83
2019-04-21T08:03:58.143Z,7.58
2019-04-21T08:05:13.455Z,6.58
2019-04-21T08:05:53.691Z,6.75
2019-04-21T08:06:33.930Z,7.15
2019-04-21T08:07:11.739Z,7.22
2019-04-21T08:08:15.817Z,7.20
2019-04-21T08:09:03.921Z,6.40
2019-04-21T08:09:37.192Z,6.80
2019-04-21T08:10:14.465Z,7.08
2019-04-21T08:10:55.311Z,7.00
2019-04-21T08:11:28.162Z,6.80
2019-04-21T08:12:04.167Z,7.17
2019-04-21T08:12:41.965Z,6.87
2019-04-21T08:13:30.763Z,6.65
2019-04-21T08:14:01.104Z,6.50
2019-04-21T08:14:45.120Z,6.85
2019-04-21T08:15:24.889Z,6.70
2019-04-21T08:15:51.303Z,6.28
2019-04-21T08:16:30.570Z,6.92
2019-04-21T08:17:11.806Z,7.17
2019-04-21T08:17:47.124Z,6.37
2019-04-21T08:18:28.736Z,6.65
2019-04-21T08:19:09.625Z,6.75
2019-04-21T08:19:39.299Z,7.10
2019-04-21T08:20:20.574Z,6.65
2019-04-21T08:20:53.420Z,6.90
2019-04-21T08:21:35.436Z,6.85
2019-04-21T08:22:51.726Z,6.70
2019-04-21T08:24:06.360Z,6.75
2019-04-21T08:24:43.836Z,7.00
2019-04-21T08:25:20.561Z,6.80
2019-04-21T08:27:03.233Z,6.53
2019-04-21T08:27:17.572Z,6.45
2019-04-21T08:27:56.970Z,6.72
2019-04-21T08:28:32.080Z,6.83
2019-04-21T08:29:18.903Z,6.65
2019-04-21T08:31:05.898Z,6.42
2019-04-21T08:31:48.550Z,6.20
2019-04-21T08:32:26.622Z,6.67
2019-04-21T08:33:38.763Z,6.72
2019-04-21T08:34:15.037Z,6.87
2019-04-21T08:35:09.504Z,6.50
2019-04-21T08:36:46.191Z,6.28
2019-04-21T08:37:24.865Z,6.15
2019-04-21T08:38:03.505Z,6.00
2019-04-21T08:38:42.624Z,6.62
2019-04-21T08:39:21.459Z,6.10
2019-04-21T08:40:04.489Z,6.17
2019-04-21T08:40:36.137Z,6.58
2019-04-21T08:41:52.358Z,5.80
2019-04-21T08:42:25.606Z,6.87
2019-04-21T08:43:02.815Z,5.92
2019-04-21T08:44:25.714Z,7.00
2019-04-21T08:45:03.882Z,6.70
2019-04-21T08:46:55.081Z,5.72
2019-04-21T08:47:33.896Z,6.00
2019-04-21T08:48:10.291Z,5.70
2019-04-21T08:48:52.717Z,6.10
2019-04-21T08:49:24.322Z,5.72
2019-04-21T08:50:00.468Z,6.22
2019-04-21T08:50:41.459Z,6.28
2019-04-21T08:52:06.759Z,6.10
2019-04-21T08:53:35.691Z,6.00
2019-04-21T08:54:28.018Z,6.55
2019-04-21T08:55:12.465Z,5.90
2019-04-21T08:56:10.314Z,6.47
2019-04-21T08:57:24.735Z,6.08
2019-04-21T08:59:12.782Z,5.17
2019-04-21T09:00:08.732Z,5.42
2019-04-21T09:00:56.310Z,5.45
2019-04-21T09:01:48.883Z,6.08
2019-04-21T09:02:43.193Z,5.83
2019-04-21T09:03:19.562Z,6.00
2019-04-21T09:04:06.900Z,5.95
2019-04-21T09:04:41.179Z,6.17
2019-04-21T09:05:26.567Z,5.78
2019-04-21T09:06:04.689Z,5.75
2019-04-21T09:06:54.159Z,5.45
2019-04-21T09:07:20.061Z,5.55
2019-04-21T09:07:55.259Z,6.33
2019-04-21T09:08:37.593Z,5.45
2019-04-21T09:09:11.317Z,6.25
2019-04-21T09:09:46.838Z,5.58
2019-04-21T09:10:21.995Z,5.80
2019-04-21T09:10:59.370Z,5.92
2019-04-21T09:11:38.877Z,5.87
2019-04-21T09:12:15.013Z,5.85
2019-04-21T09:12:51.794Z,5.87
2019-04-21T09:13:29.727Z,5.67
2019-04-21T09:14:13.647Z,5.58
2019-04-21T09:14:51.252Z,5.70
2019-04-21T09:15:24.909Z,6.33
2019-04-21T09:16:05.130Z,5.80
2019-04-21T09:16:41.122Z,5.05
2019-04-21T09:17:14.864Z,5.87
2019-04-21T09:17:54.743Z,5.85
2019-04-21T09:18:32.510Z,5.67
2019-04-21T09:19:11.782Z,6.08
2019-04-21T09:20:13.822Z,6.20
2019-04-21T09:20:34.664Z,5.62
2019-04-21T09:21:04.580Z,5.12
2019-04-21T09:21:51.612Z,5.35
2019-04-21T09:22:28.760Z,5.33
2019-04-21T09:23:00.983Z,5.17
2019-04-21T09:23:40.572Z,5.60
2019-04-21T09:24:16.202Z,5.78
2019-04-21T09:25:12.212Z,5.35
2019-04-21T09:26:17.069Z,5.55
2019-04-21T09:26:48.482Z,5.35
2019-04-21T09:27:29.296Z,5.28
2019-04-21T09:28:08.070Z,5.00
2019-04-21T09:28:36.737Z,5.95
2019-04-21T09:29:13.707Z,5.15
2019-04-21T09:29:48.564Z,4.83
2019-04-21T09:30:17.537Z,5.35
2019-04-21T09:30:58.527Z,5.00
2019-04-21T09:31:37.434Z,5.58
2019-04-21T09:32:15.540Z,4.60
2019-04-21T09:32:53.436Z,4.97
2019-04-21T09:33:33.434Z,5.08
2019-04-21T09:34:08.423Z,5.37
2019-04-21T09:34:45.612Z,4.90
2019-04-21T09:35:22.263Z,5.10
2019-04-21T09:36:02.608Z,5.20
2019-04-21T09:36:44.206Z,5.30
2019-04-21T09:37:26.859Z,4.72
2019-04-21T09:38:00.313Z,4.83
2019-04-21T09:38:37.161Z,4.62
2019-04-21T09:39:18.411Z,5.22
2019-04-21T09:39:55.165Z,5.03
2019-04-21T09:40:34.425Z,4.70
2019-04-21T09:41:14.305Z,5.08
2019-04-21T09:41:49.917Z,4.78
2019-04-21T09:42:33.280Z,5.10
2019-04-21T09:43:07.637Z,4.65
2019-04-21T09:43:45.323Z,4.80
2019-04-21T09:44:23.654Z,4.50
2019-04-21T09:45:00.525Z,5.00
2019-04-21T09:45:32.980Z,5.25
2019-04-21T09:46:09.093Z,5.50
2019-04-21T09:46:50.502Z,4.90
2019-04-21T09:47:33.613Z,4.50
2019-04-21T09:48:09.184Z,5.00
2019-04-21T09:48:50.043Z,5.00
2019-04-21T09:49:22.472Z,4.85
2019-04-21T09:49:56.342Z,4.40
2019-04-21T09:50:34.612Z,4.53
2019-04-21T09:51:11.063Z,4.87
2019-04-21T09:51:48.284Z,4.35
2019-04-21T09:52:30.994Z,4.35
2019-04-21T09:53:12.922Z,4.85
2019-04-21T09:53:43.304Z,4.60
2019-04-21T09:54:24.859Z,4.40
2019-04-21T09:55:04.945Z,5.42